Погода Сан-Хуан-де-Лимаина 2 недели

Рива, Никарагуа

04 - 16 марта
  • 04марта
    Сегодня
    +23°
    +33°
    Ясно и безоблачно
    ВремяПогодаТемператураВлажностьДавлениеВетер, м/сВероятность осадков
    00:00Ясно и безоблачно+24°C83 %753 мм7.9 м/с2 %
    03:00Ясно и безоблачно+24°C88 %752 мм7.1 м/с2 %
    06:00Практически безоблачно+24°C88 %753 мм6.8 м/с2 %
    09:00Практически безоблачно+28°C69 %754 мм7.5 м/с3 %
    12:00Ясно и безоблачно+30°C59 %753 мм6.9 м/с2 %
    15:00Ясно и безоблачно+32°C48 %750 мм6.1 м/с2 %
    18:00Ясно и безоблачно+28°C59 %750 мм4.7 м/с2 %
    21:00Ясно и безоблачно+27°C71 %752 мм6.7 м/с2 %
  • 05марта
    Вторник
    +23°
    +33°
    Ясно и безоблачно
    ВремяПогодаТемператураВлажностьДавлениеВетер, м/сВероятность осадков
    00:00Ясно и безоблачно+25°C77 %752 мм5.7 м/с2 %
    03:00Ясно и безоблачно+25°C87 %752 мм5.7 м/с2 %
    06:00Практически безоблачно+24°C89 %753 мм5.3 м/с2 %
    09:00Практически безоблачно+28°C67 %754 мм7.9 м/с11 %
    12:00Ясно и безоблачно+30°C56 %752 мм7.3 м/с4 %
    15:00Ясно и безоблачно+33°C44 %750 мм6.3 м/с2 %
    18:00Ясно и безоблачно+29°C54 %750 мм4.6 м/с2 %
    21:00Ясно и безоблачно+27°C65 %752 мм6.0 м/с2 %
  • 06марта
    Среда
    +23°
    +34°
    Небольшая облачность
    ВремяПогодаТемператураВлажностьДавлениеВетер, м/сВероятность осадков
    00:00Ясно и безоблачно+25°C66 %752 мм6.4 м/с3 %
    03:00Ясно и безоблачно+24°C79 %751 мм5.8 м/с4 %
    06:00Ясно и безоблачно+24°C83 %752 мм5.7 м/с5 %
    09:00Ясно и безоблачно+28°C67 %753 мм6.9 м/с7 %
    12:00Ясно и безоблачно+31°C50 %752 мм7.3 м/с7 %
    15:00Небольшая облачность+33°C42 %749 мм6.0 м/с2 %
    18:00Ясно и безоблачно+30°C51 %750 мм3.9 м/с2 %
    21:00Ясно и безоблачно+28°C66 %752 мм6.7 м/с2 %
  • 07марта
    Четверг
    +24°
    +34°
    Ясно и безоблачно
    ВремяПогодаТемператураВлажностьДавлениеВетер, м/сВероятность осадков
    00:00Ясно и безоблачно+25°C75 %752 мм4.9 м/с2 %
    03:00Ясно и безоблачно+25°C84 %751 мм5.3 м/с2 %
    06:00Ясно и безоблачно+24°C88 %753 мм5.4 м/с8 %
    09:00Ясно и безоблачно+29°C64 %754 мм5.9 м/с18 %
    12:00Ясно и безоблачно+31°C53 %753 мм6.5 м/с7 %
    15:00Ясно и безоблачно+33°C44 %750 мм6.0 м/с2 %
    18:00Ясно и безоблачно+29°C51 %751 мм3.6 м/с2 %
    21:00Практически безоблачно+28°C61 %752 мм4.6 м/с2 %
Мы используем cookies
Соглашаюсь